createdAt,value
2019-04-06T04:32:39.005Z,23.77
2019-04-06T04:35:08.220Z,21.90
2019-04-06T04:37:37.467Z,22.33
2019-04-06T04:40:07.931Z,24.57
2019-04-06T04:42:37.462Z,26.93
2019-04-06T04:45:07.265Z,26.07
2019-04-06T04:47:36.297Z,24.90
2019-04-06T04:50:06.878Z,23.97
2019-04-06T04:52:35.852Z,24.00
2019-04-06T04:55:05.418Z,24.33
2019-04-06T04:57:40.014Z,22.07
2019-04-06T05:00:06.481Z,23.90
2019-04-06T05:02:35.656Z,24.90
2019-04-06T05:05:05.167Z,21.67
2019-04-06T05:07:34.214Z,21.47
2019-04-06T05:10:03.310Z,22.23
2019-04-06T05:12:32.240Z,21.70
2019-04-06T05:15:03.463Z,23.17
2019-04-06T05:17:32.696Z,22.90
2019-04-06T05:20:01.885Z,23.00
2019-04-06T05:22:31.071Z,22.70
2019-04-06T05:25:00.248Z,23.77
2019-04-06T05:27:30.485Z,22.97
2019-04-06T05:29:59.962Z,22.97
2019-04-06T05:32:29.222Z,25.00
2019-04-06T05:34:58.721Z,23.97
2019-04-06T05:37:28.217Z,22.87
2019-04-06T05:39:57.861Z,24.63
2019-04-06T05:42:27.133Z,25.20
2019-04-06T05:44:56.900Z,23.80
2019-04-06T05:47:26.269Z,26.17
2019-04-06T05:49:55.261Z,25.67
2019-04-06T05:52:24.352Z,22.70
2019-04-06T05:54:53.510Z,25.30
2019-04-06T05:57:22.714Z,24.83
2019-04-06T05:59:51.831Z,23.80
2019-04-06T06:02:21.298Z,24.07
2019-04-06T06:04:50.662Z,23.57
2019-04-06T06:07:20.220Z,22.60
2019-04-06T06:09:49.453Z,22.50
2019-04-06T06:12:19.539Z,22.43
2019-04-06T06:14:48.922Z,22.17
2019-04-06T06:17:17.945Z,22.03
2019-04-06T06:19:48.388Z,22.43
2019-04-06T06:22:19.886Z,23.50
2019-04-06T06:24:49.354Z,22.47
2019-04-06T06:27:18.374Z,21.73
2019-04-06T06:29:49.114Z,22.87
2019-04-06T06:32:18.660Z,23.17
2019-04-06T06:34:48.759Z,22.20
2019-04-06T06:37:18.022Z,21.23
2019-04-06T06:39:47.167Z,22.43
2019-04-06T06:42:16.189Z,24.60
2019-04-06T06:44:46.143Z,24.43
2019-04-06T06:47:16.702Z,23.03
2019-04-06T06:49:47.080Z,25.43
2019-04-06T06:52:16.401Z,25.70
2019-04-06T06:54:45.543Z,25.20
2019-04-06T06:57:14.999Z,27.43
2019-04-06T06:59:46.170Z,24.57
2019-04-06T07:02:16.145Z,27.67
2019-04-06T07:04:45.100Z,26.23
2019-04-06T07:07:14.526Z,28.83
2019-04-06T07:09:44.022Z,28.70
2019-04-06T07:12:13.299Z,29.10
2019-04-06T07:14:42.444Z,28.50
2019-04-06T07:17:11.400Z,26.17
2019-04-06T07:19:40.482Z,29.13
2019-04-06T07:22:09.509Z,26.37
2019-04-06T07:24:39.125Z,27.60
2019-04-06T07:27:09.635Z,26.10
2019-04-06T07:29:39.253Z,28.37
2019-04-06T07:32:08.330Z,28.30
2019-04-06T07:34:37.354Z,27.17
2019-04-06T07:37:06.368Z,28.17
2019-04-06T07:39:35.884Z,27.20
2019-04-06T07:42:05.148Z,27.40
2019-04-06T07:44:34.623Z,26.87
2019-04-06T07:47:05.262Z,26.60
2019-04-06T07:49:34.769Z,27.87
2019-04-06T07:52:04.653Z,28.20
2019-04-06T07:54:36.010Z,28.30
2019-04-06T07:57:05.741Z,26.43
2019-04-06T07:59:35.753Z,28.43
2019-04-06T08:02:05.096Z,27.47
2019-04-06T08:04:34.354Z,25.77
2019-04-06T08:07:03.494Z,26.03
2019-04-06T08:09:32.557Z,28.40
2019-04-06T08:12:01.846Z,27.00
2019-04-06T08:14:30.884Z,27.37
2019-04-06T08:16:59.898Z,23.77
2019-04-06T08:19:29.015Z,25.57
2019-04-06T08:21:58.103Z,24.47
2019-04-06T08:24:27.097Z,26.80
2019-04-06T08:26:56.143Z,26.87
2019-04-06T08:29:25.144Z,27.10
2019-04-06T08:31:54.247Z,25.27
2019-04-06T08:34:23.309Z,25.57
2019-04-06T08:36:52.410Z,24.90
2019-04-06T08:39:21.446Z,28.13
2019-04-06T08:41:50.518Z,25.60
2019-04-06T08:44:19.651Z,24.67
2019-04-06T08:46:48.740Z,26.30
2019-04-06T08:49:18.062Z,25.03
2019-04-06T08:51:47.308Z,24.63
2019-04-06T08:54:16.459Z,24.80
2019-04-06T08:56:45.591Z,25.50
2019-04-06T08:59:14.642Z,22.90
2019-04-06T09:01:43.634Z,24.87
2019-04-06T09:04:12.746Z,22.87
2019-04-06T09:06:41.790Z,25.50
2019-04-06T09:09:10.923Z,24.90
2019-04-06T09:11:39.947Z,25.97
2019-04-06T09:14:08.887Z,23.87
2019-04-06T09:16:37.980Z,25.10
2019-04-06T09:19:06.903Z,23.20
2019-04-06T09:21:35.902Z,22.87
2019-04-06T09:24:04.958Z,23.27
2019-04-06T09:26:33.970Z,22.57
2019-04-06T09:29:03.134Z,22.13
2019-04-06T09:31:32.309Z,21.17
2019-04-06T09:34:01.514Z,20.93
2019-04-06T09:36:30.508Z,20.80
2019-04-06T09:38:59.580Z,20.80
2019-04-06T09:41:28.827Z,21.10
2019-04-06T09:43:57.822Z,19.90
2019-04-06T09:46:51.849Z,17.53
2019-04-06T09:49:38.400Z,16.43
2019-04-06T09:52:44.686Z,17.03
2019-04-06T09:55:26.379Z,17.13
2019-04-06T09:58:11.500Z,15.20
2019-04-06T10:00:59.565Z,18.07
2019-04-06T10:03:44.262Z,17.13
2019-04-06T10:06:21.808Z,14.43
2019-04-06T10:09:13.034Z,13.93
2019-04-06T10:11:56.228Z,15.70
2019-04-06T10:14:33.030Z,14.77
2019-04-06T10:17:30.010Z,15.93
2019-04-06T10:20:10.634Z,15.53
2019-04-06T10:22:59.396Z,14.93
2019-04-06T10:25:52.970Z,13.77
2019-04-06T10:28:40.066Z,13.87
2019-04-06T10:31:40.223Z,13.67
2019-04-06T10:34:28.476Z,13.20
2019-04-06T10:37:15.537Z,13.13
2019-04-06T10:39:52.695Z,14.37
2019-04-06T10:42:46.931Z,14.83
2019-04-06T10:45:32.627Z,13.83
2019-04-06T10:48:23.712Z,13.73
2019-04-06T10:51:00.757Z,13.23
2019-04-06T10:53:51.656Z,14.60
2019-04-06T10:56:34.347Z,14.47
2019-04-06T10:59:22.566Z,12.63
2019-04-06T11:02:09.447Z,14.97
2019-04-06T11:04:49.554Z,15.10
2019-04-06T11:07:30.272Z,16.90
2019-04-06T11:10:18.857Z,15.50
2019-04-06T11:13:03.284Z,13.70
2019-04-06T11:15:58.045Z,16.17
2019-04-06T11:18:44.927Z,14.10
2019-04-06T11:21:27.207Z,14.70
2019-04-06T11:24:18.407Z,15.93
2019-04-06T11:27:06.941Z,16.57
2019-04-06T11:29:55.251Z,16.37
2019-04-06T11:32:33.556Z,17.10
2019-04-06T11:35:13.067Z,14.20
2019-04-06T11:37:59.811Z,14.47
2019-04-06T11:40:39.026Z,13.60
2019-04-06T11:43:39.313Z,13.40
2019-04-06T11:46:22.277Z,14.27
2019-04-06T11:48:57.643Z,13.90
2019-04-06T11:51:33.450Z,13.83
2019-04-06T11:54:21.095Z,15.83
2019-04-06T11:57:10.177Z,14.30
2019-04-06T11:59:52.319Z,16.83
2019-04-06T12:02:38.765Z,14.93
2019-04-06T12:05:15.287Z,16.03
2019-04-06T12:08:03.345Z,14.20
2019-04-06T12:10:54.495Z,16.00
2019-04-06T12:13:51.805Z,14.37
2019-04-06T12:16:42.546Z,14.23
2019-04-06T12:19:32.918Z,15.70
2019-04-06T12:22:19.843Z,14.03
2019-04-06T12:25:16.914Z,13.40
2019-04-06T12:28:04.846Z,13.93
2019-04-06T12:31:01.963Z,14.50
2019-04-06T12:34:02.480Z,13.23
2019-04-06T12:36:56.407Z,12.20
2019-04-06T12:39:52.546Z,12.80
2019-04-06T12:42:25.983Z,12.50
2019-04-06T12:45:17.195Z,12.00
2019-04-06T12:48:17.427Z,10.50
2019-04-06T12:51:00.978Z,13.00
2019-04-06T12:53:58.416Z,10.90
2019-04-06T12:56:44.978Z,10.10
2019-04-06T12:59:34.719Z,10.20
2019-04-06T13:02:20.182Z,8.77
2019-04-06T13:05:06.748Z,8.00
2019-04-06T13:07:57.688Z,9.30
2019-04-06T13:10:32.910Z,10.03
2019-04-06T13:13:23.950Z,9.57
2019-04-06T13:16:21.583Z,8.50
2019-04-06T13:19:08.056Z,7.33
2019-04-06T13:21:54.791Z,7.70
2019-04-06T13:24:33.743Z,7.23
2019-04-06T13:27:25.270Z,8.07
2019-04-06T13:30:06.413Z,8.00
2019-04-06T13:33:00.608Z,8.63
2019-04-06T13:35:51.780Z,9.40
2019-04-06T13:38:40.080Z,9.40
2019-04-06T13:41:34.410Z,8.03
2019-04-06T13:44:28.590Z,8.97
2019-04-06T13:47:15.051Z,7.73
2019-04-06T13:50:15.497Z,9.23
2019-04-06T13:52:54.957Z,8.37
2019-04-06T13:55:49.043Z,7.23
2019-04-06T13:58:24.514Z,6.80
2019-04-06T14:01:17.590Z,7.40
2019-04-06T14:04:08.154Z,8.50
2019-04-06T14:07:05.422Z,6.80
2019-04-06T14:09:43.029Z,6.53
2019-04-06T14:12:49.464Z,7.70
2019-04-06T14:15:40.643Z,7.10
2019-04-06T14:18:27.245Z,6.73
2019-04-06T14:21:12.578Z,6.13
2019-04-06T14:24:03.804Z,7.03
2019-04-06T14:26:54.265Z,6.30
2019-04-06T14:29:38.493Z,6.37
2019-04-06T14:32:26.554Z,5.70
2019-04-06T14:35:02.746Z,7.07
2019-04-06T14:37:51.403Z,6.10
2019-04-06T14:40:34.551Z,5.20
2019-04-06T14:43:21.514Z,6.63
2019-04-06T14:46:09.601Z,6.10
2019-04-06T14:48:56.484Z,6.80
2019-04-06T14:51:40.870Z,6.77
2019-04-06T14:54:28.055Z,6.73
2019-04-06T14:57:12.386Z,6.13
2019-04-06T15:00:04.943Z,6.67
2019-04-06T15:02:44.125Z,6.40
2019-04-06T15:05:35.346Z,5.80
2019-04-06T15:08:35.928Z,7.67
2019-04-06T15:11:18.201Z,6.73
2019-04-06T15:14:04.983Z,6.50
2019-04-06T15:17:05.076Z,5.63
2019-04-06T15:19:41.618Z,5.83
2019-04-06T15:22:28.673Z,5.93
2019-04-06T15:25:16.877Z,6.50
2019-04-06T15:28:05.270Z,6.70
2019-04-06T15:31:08.339Z,5.50
2019-04-06T15:33:46.270Z,5.70
2019-04-06T15:36:34.102Z,6.00
2019-04-06T15:39:11.416Z,5.87
2019-04-06T15:41:57.592Z,5.87
2019-04-06T15:44:37.916Z,6.30
2019-04-06T15:47:29.937Z,6.07
2019-04-06T15:50:17.034Z,6.37
2019-04-06T15:53:03.828Z,5.40
2019-04-06T15:55:44.494Z,5.93
2019-04-06T15:58:24.901Z,5.43
2019-04-06T16:01:30.882Z,6.20
2019-04-06T16:04:21.782Z,5.40
2019-04-06T16:07:01.061Z,5.30
2019-04-06T16:09:55.427Z,5.53
2019-04-06T16:12:30.605Z,4.80
2019-04-06T16:15:37.032Z,5.20
2019-04-06T16:18:12.003Z,5.70
2019-04-06T16:21:05.759Z,6.00
2019-04-06T16:23:44.451Z,5.90
2019-04-06T16:26:23.559Z,5.83
2019-04-06T16:29:10.094Z,5.57
2019-04-06T16:32:12.515Z,5.57
2019-04-06T16:34:45.140Z,5.97
2019-04-06T16:37:20.892Z,5.50
2019-04-06T16:40:07.922Z,5.67
2019-04-06T16:42:50.927Z,7.30
2019-04-06T16:45:42.213Z,8.00
2019-04-06T16:48:33.384Z,5.53
2019-04-06T16:51:18.002Z,7.13
2019-04-06T16:53:53.457Z,7.20
2019-04-06T16:56:44.579Z,6.60
2019-04-06T16:59:31.989Z,7.37
2019-04-06T17:02:22.541Z,6.50
2019-04-06T17:04:59.651Z,7.00
2019-04-06T17:07:46.472Z,6.83
2019-04-06T17:10:40.569Z,6.93
2019-04-06T17:13:29.256Z,6.60
2019-04-06T17:16:35.410Z,6.50
2019-04-06T17:19:20.245Z,6.70
2019-04-06T17:22:14.446Z,6.90
2019-04-06T17:25:01.844Z,7.05
2019-04-06T17:27:44.505Z,7.80
2019-04-06T17:30:22.452Z,7.60
2019-04-06T17:33:17.472Z,7.83
2019-04-06T17:36:10.059Z,6.77
2019-04-06T17:39:04.063Z,8.00
2019-04-06T17:41:52.441Z,6.10
2019-04-06T17:44:39.079Z,7.33
2019-04-06T17:47:33.663Z,6.53
2019-04-06T17:50:20.803Z,6.53
2019-04-06T17:53:02.760Z,6.40
2019-04-06T17:55:50.898Z,6.80
2019-04-06T17:58:39.677Z,6.80
2019-04-06T18:01:27.766Z,6.53
2019-04-06T18:04:27.607Z,6.60
2019-04-06T18:07:12.121Z,5.40
2019-04-06T18:09:52.052Z,5.83
2019-04-06T18:12:44.093Z,5.20
2019-04-06T18:15:13.354Z,5.00
2019-04-06T18:17:42.365Z,5.60
2019-04-06T18:20:11.657Z,4.80
2019-04-06T18:22:40.619Z,5.50
2019-04-06T18:25:09.679Z,5.57
2019-04-06T18:27:38.691Z,5.27
2019-04-06T18:30:09.062Z,4.63
2019-04-06T18:32:57.096Z,5.03
2019-04-06T18:35:16.659Z,5.23
2019-04-06T18:38:00.439Z,5.20
2019-04-06T18:40:30.537Z,4.73
2019-04-06T18:42:59.831Z,4.43
2019-04-06T18:45:31.419Z,4.50
2019-04-06T18:48:01.351Z,4.80
2019-04-06T18:50:35.988Z,3.87
2019-04-06T18:53:01.242Z,4.57
2019-04-06T18:55:30.433Z,4.07
2019-04-06T18:58:08.835Z,3.70
2019-04-06T19:00:30.216Z,4.20
2019-04-06T19:03:11.206Z,4.20
2019-04-06T19:05:30.062Z,4.20
2019-04-06T19:07:59.269Z,3.90
2019-04-06T19:10:28.395Z,3.90
2019-04-06T19:12:57.590Z,4.07
2019-04-06T19:15:26.849Z,4.47
2019-04-06T19:17:56.306Z,3.73
2019-04-06T19:20:25.682Z,4.27
2019-04-06T19:22:54.833Z,3.83
2019-04-06T19:25:23.988Z,5.10
2019-04-06T19:27:53.508Z,4.50
2019-04-06T19:30:22.783Z,4.10
2019-04-06T19:32:52.307Z,4.70
2019-04-06T19:35:21.358Z,5.00
2019-04-06T19:37:50.548Z,4.97
2019-04-06T19:40:19.829Z,4.63
2019-04-06T19:42:48.924Z,4.70
2019-04-06T19:45:18.169Z,5.00
2019-04-06T19:47:47.191Z,5.47
2019-04-06T19:50:16.564Z,5.73
2019-04-06T19:52:45.832Z,5.70
2019-04-06T19:55:15.066Z,4.43
2019-04-06T19:57:44.097Z,6.10
2019-04-06T20:00:13.442Z,5.40
2019-04-06T20:02:42.491Z,4.93
2019-04-06T20:05:12.262Z,5.33
2019-04-06T20:07:42.616Z,5.50
2019-04-06T20:10:12.843Z,4.60
2019-04-06T20:12:42.508Z,5.20
2019-04-06T20:15:12.490Z,5.50
2019-04-06T20:17:41.420Z,5.57
2019-04-06T20:20:10.951Z,5.07
2019-04-06T20:22:40.125Z,5.50
2019-04-06T20:25:10.245Z,5.67
2019-04-06T20:27:39.772Z,4.70
2019-04-06T20:30:09.552Z,5.43
2019-04-06T20:32:39.155Z,4.80
2019-04-06T20:35:09.293Z,5.50
2019-04-06T20:37:38.977Z,4.87
2019-04-06T20:40:10.283Z,4.53
2019-04-06T20:42:39.617Z,3.90
2019-04-06T20:45:09.289Z,4.37
2019-04-06T20:47:40.142Z,3.60
2019-04-06T20:50:09.507Z,3.67
2019-04-06T20:52:38.562Z,3.87
2019-04-06T20:55:08.949Z,3.33
2019-04-06T20:57:38.378Z,3.30
2019-04-06T21:00:08.531Z,3.70
2019-04-06T21:02:37.705Z,3.53
2019-04-06T21:05:07.848Z,3.40
2019-04-06T21:07:37.262Z,3.70
2019-04-06T21:10:08.781Z,3.83
2019-04-06T21:12:38.579Z,4.10
2019-04-06T21:15:17.859Z,3.80
2019-04-06T21:17:40.176Z,3.57
2019-04-06T21:20:09.387Z,3.30
2019-04-06T21:22:38.594Z,3.83
2019-04-06T21:25:08.418Z,4.40
2019-04-06T21:27:37.655Z,3.70
2019-04-06T21:30:08.274Z,3.00
2019-04-06T21:32:37.319Z,3.50
2019-04-06T21:35:07.132Z,4.00
2019-04-06T21:37:36.888Z,3.13
2019-04-06T21:40:06.778Z,3.20
2019-04-06T21:42:36.487Z,3.17
2019-04-06T21:45:06.422Z,2.60
2019-04-06T21:47:35.947Z,2.40
2019-04-06T21:50:05.843Z,3.10
2019-04-06T21:52:35.269Z,2.53
2019-04-06T21:55:05.046Z,2.47
2019-04-06T21:57:34.846Z,2.57
2019-04-06T22:00:06.131Z,2.37
2019-04-06T22:02:35.469Z,2.03
2019-04-06T22:05:05.579Z,2.43
2019-04-06T22:07:47.265Z,2.37
2019-04-06T22:10:06.446Z,2.10
2019-04-06T22:12:35.574Z,2.17
2019-04-06T22:15:05.895Z,1.83
2019-04-06T22:17:35.900Z,2.10
2019-04-06T22:20:05.674Z,2.20
2019-04-06T22:22:35.403Z,2.30
2019-04-06T22:25:05.821Z,1.57
2019-04-06T22:27:34.988Z,2.20
